Terminal Aerodrome Forecast
Issued by NWS

Home | Current Version | Previous Version | Graphics & Text | Print | Product List | Glossary Off
Versions: 1 2 3 4 5 6 7 8 9 10 11 12 13 14

000
FTUS43 KDDC 241026 AAA
TAFGCK
TAF AMD
KGCK 241026Z 2410/2506 19016G24KT P6SM SCT250 WS020/22045KT
     FM241400 23016G24KT P6SM SCT250 WS020/26035KT
     FM241500 24016KT P6SM SCT250
     FM242000 33012KT P6SM SCT250=

USA.gov is the U.S. government's official web portal to all federal, state and local government web resources and services.